Walker Acosta

Olheiro - Portland Timbers
22 Fev 2028
Terça-feira
Processo

Personalidade

Adaptabilidade (13) Ambição (10) Controvérsia (14) Lealdade (5) Pressão (19) Profissionalismo (5) Espírito Esportivo (6) Temperamento (13)

Perfil

Estilo de Treinamento Democrático
Licença Continental A
Determinação 13
Gestão de Pessoas 7
Motivação 6
Disciplina 8
Satisfação no Trabalho
100%
Fadiga
0%
Função Olheiro
Salário 58.8K p/s
Contrato 14.03.2030

Desempenho

Comportamento Bom
Eficácia do Treinamento
40%
Desenvolvimento do Jogador
50%
Prevenção de Lesões
20%
Implementação Tática
25%

Eventos Recentes

Participou de uma reunião de recrutamento agora
Recomendou um alvo de transferência agora
Recomendou um alvo de transferência agora
Participou de uma reunião de recrutamento 7d atrás
Recomendou um alvo de transferência 7d atrás
Recomendou um alvo de transferência 7d atrás
Recomendou um alvo de transferência 7d atrás
Recomendou um alvo de transferência 7d atrás

Monitorando agora

173
Jogador Clube Status Habilidade Confiança Observado Última observação Último voto
Giovanni Leoni Bradford City Ativo 152 / 139 40% 8 13.02.2028 -
Jamie Wähling Hibernians Ativo 92 / 86 40% 2 13.02.2028 -
Finley McAllister Grimsby Town Ativo 85 / 108 40% 1 13.02.2028 -
Pablo Lúcio Bristol City Ativo 104 / 119 40% 1 11.02.2028 -
Eduardo Felicíssimo Sporting CP Ativo 114 / 113 40% 1 11.02.2028 -
Ayden Heaven Luton Town Ativo 145 / 134 40% 3 09.02.2028 -
Keagan Phiri Platinum Stars Ativo 116 / 123 40% 2 09.02.2028 -
Zane Albarus Cambridge United Ativo 91 / 122 40% 1 09.02.2028 -
Josh King Chelsea Ativo 151 / 154 40% 4 08.02.2028 -
Ernie Weaver AFC Wimbledon Ativo 108 / 115 40% 3 08.02.2028 -
Tyson Pearce St. Louis CITY SC Ativo 97 / 97 40% 2 08.02.2028 -
Avery Appiah Ajax Ativo 108 / 113 40% 1 10.01.2028 -
Jair Collahuazo Kudrivka Ativo 92 / 100 40% 1 10.01.2028 -
Jofre Torrents Ajax Ativo 120 / 134 40% 1 10.01.2028 -
Christos Mouzakitis Hull City Ativo 134 / 137 40% 5 09.01.2028 -
Matías Canedo Rampla Juniors Ativo 79 / 82 40% 1 09.01.2028 -
Trey Nyoni Rotherham United Ativo 125 / 150 40% 4 06.01.2028 -
Luis Otávio Colorado Rapids Ativo 106 / 133 40% 4 06.01.2028 -
Archie Gray Derby County Ativo 151 / 166 40% 5 05.01.2028 -
Jayden Joseph Bradford City Ativo 101 / 106 40% 2 04.01.2028 -
Noahkai Banks Hamburger SV Ativo 132 / 156 40% 1 04.01.2028 -
Esquerdinha Shrewsbury Town Ativo 122 / 123 40% 4 01.01.2028 -
Joel McGregor Swindon Town Ativo 111 / 120 40% 3 31.12.2027 -
Ronnie Harvey Bromley Ativo 95 / 84 40% 1 31.12.2027 -
Josh Nichols Tranmere Rovers Ativo 133 / 121 40% 3 07.12.2027 -
Samuel Posada Leones Ativo 78 / 91 40% 1 03.11.2027 -
Somtochuwku Ezenabo Kwara United Ativo 87 / 100 40% 2 02.11.2027 -
Moses Sesay Charlton Athletic Ativo 102 / 116 40% 1 02.11.2027 -
Ezra Mayers West Ham United Ativo 114 / 132 40% 2 01.11.2027 -
Sam Curtis Cambridge United Ativo 103 / 106 40% 3 01.11.2027 -
Mads Bomholt Stabaek Ativo 120 / 118 40% 5 31.10.2027 -
Óscar Hinojosa Metropolitanos Ativo 88 / 98 40% 1 31.10.2027 -
Hervin Goyes Deportivo Pasto Ativo 102 / 103 40% 3 28.10.2027 -
Gift Udoh Ikorodu City Ativo 79 / 105 40% 2 28.10.2027 -
Onuorah Onyedika Kun Khalifat Ativo 96 / 78 40% 2 25.10.2027 -
Joel Ezra Enyimba Ativo 108 / 83 40% 3 25.10.2027 -
Ronan Kpakio Cardiff City Ativo 130 / 137 40% 2 24.10.2027 -
Harbor Miller LA Galaxy Ativo 103 / 114 40% 2 24.10.2027 -
Agustín Obregón River Plate Ativo 105 / 120 40% 1 23.10.2027 -
Godwin Oham Warri Wolves Ativo 79 / 79 40% 2 21.10.2027 -
Mikkel Hope Haugesund Ativo 114 / 107 40% 1 20.10.2027 -
Lucas Camejo River Plate Ativo 94 / 85 40% 4 19.10.2027 -
Hosea Michael Remo Stars Ativo 92 / 109 40% 1 19.10.2027 -
Jens Hjertø-Dahl Hull City Ativo 140 / 142 40% 5 18.10.2027 -
Ignacio Fernández Boston River Ativo 86 / 108 40% 1 18.10.2027 -
Mauro Carrizo Atlético Tucumán Ativo 97 / 117 40% 2 16.10.2027 -
Alejandro Almaraz Nueva Chicago Ativo 110 / 106 40% 1 16.10.2027 -
Harrison Armstrong Everton Ativo 140 / 148 40% 1 15.10.2027 -
David Damboama El-Kanemi Warriors Ativo 98 / 92 40% 2 13.10.2027 -
Dominik Chong Qui Atlanta United FC Ativo 100 / 89 40% 2 13.10.2027 -
Yiandro Raap Ilves Ativo 84 / 110 40% 1 11.10.2027 -
Malick Yalcouyé Brighton Ativo 121 / 126 40% 1 08.10.2027 -
Nikolay Sotnikov Arsenal Dzerzhinsk Ativo 90 / 73 40% 1 03.10.2027 -
Juan Morán Godoy Cruz Ativo 104 / 124 40% 1 02.10.2027 -
Jofrank Istifanus Nasarawa United Ativo 83 / 106 40% 2 27.09.2027 -
Dayann Methalie Aston Villa Ativo 138 / 142 40% 1 27.09.2027 -
Colin Guske Orlando City Ativo 93 / 103 40% 1 26.09.2027 -
Ricky Atletico Venezuela Ativo 92 / 103 40% 2 25.09.2027 -
Esteban de Lima Tacuarembo Ativo 98 / 107 40% 2 22.09.2027 -
Zach Abbott Nottingham Forest Ativo 110 / 141 40% 1 22.09.2027 -
Caleb Yirenkyi Coventry City Ativo 142 / 130 40% 3 21.09.2027 -
Diego León Manchester United Ativo 108 / 128 40% 1 20.09.2027 -
Mpho Khethang AS Police Ativo 101 / 76 40% 1 15.09.2027 -
Matthew Litherland Rotherham United Ativo 117 / 112 40% 1 09.09.2027 -
Chibueze Oputa Rangers International Ativo 100 / 97 40% 2 07.09.2027 -
Daniel Gomez Valledupar Ativo 87 / 84 40% 1 07.09.2027 -
Ibrahim Sabiu Bendel Insurance Ativo 84 / 91 40% 1 02.08.2027 -
Keagan Tau Ajax Cape Town Ativo 90 / 88 40% 1 02.08.2027 -
Yousef Salech Cardiff City Ativo 139 / 129 40% 3 10.07.2027 -
Andri Guðjohnsen Blackburn Rovers Ativo 133 / 118 40% 1 10.07.2027 -
Pedro de la Vega FC Dallas Ativo 133 / 134 66% 1 08.07.2027 Aprovar
Facundo Torres LOSC Lille Ativo 134 / 134 67% 1 08.07.2027 Aprovar
Stanislav Agkatsev Sunderland Ativo 132 / 133 66% 1 08.07.2027 Aprovar
Callum Lang Preston Ativo 116 / 122 40% 3 07.07.2027 Observar
Zian Flemming Ipswich Town Ativo 133 / 123 40% 2 07.07.2027 Mais informações
Ilyas Ansah Hull City Ativo 138 / 125 40% 1 06.07.2027 Mais informações
Hwang Hee-Chan Wolverhampton Ativo 143 / 146 40% 3 02.07.2027 -
Hany Mukhtar Spezia Ativo 143 / 130 40% 4 02.07.2027 -
Mathias Jørgensen Blackburn Rovers Ativo 127 / 132 40% 3 02.07.2027 -
Rhian Brewster Oxford United Ativo 126 / 108 40% 2 01.07.2027 -
Aune Heggebø West Bromwich Albion Ativo 124 / 144 40% 6 29.06.2027 -
Ronan Hale Gillingham Ativo 127 / 126 40% 1 29.06.2027 -
Lorent Tolaj Plymouth Argyle Ativo 122 / 138 40% 1 29.06.2027 -
Dom Ballard Leyton Orient Ativo 132 / 131 40% 3 27.06.2027 -
Joe Gelhardt Hull City Ativo 129 / 139 40% 3 25.06.2027 -
Davis Keillor-Dunn Wrexham Ativo 109 / 130 40% 1 25.06.2027 -
Themba Ngcobo SuperSport United Ativo 122 / 119 40% 3 21.06.2027 -
Kyle Wootton Stockport County Ativo 112 / 110 40% 1 19.06.2027 -
Patson Daka Leicester City Ativo 115 / 118 40% 2 18.06.2027 -
Zeki Amdouni Burnley Ativo 132 / 138 40% 1 18.06.2027 -
Mees Rijks Bristol Rovers Ativo 124 / 112 40% 1 18.06.2027 -
Tyrese Campbell Sheffield United Ativo 120 / 119 40% 2 17.06.2027 -
Lewis Morgan SuperSport United Ativo 139 / 124 40% 1 16.06.2027 -
Carlton Morris Derby County Ativo 128 / 109 40% 1 14.06.2027 -
Callum O'Hare Sheffield United Ativo 137 / 134 40% 4 10.06.2027 -
Tyreece Campbell Charlton Athletic Ativo 123 / 121 40% 3 10.06.2027 -
Will Lankshear Middlesbrough Ativo 133 / 134 40% 3 08.06.2027 -
Morgan Whittaker Middlesbrough Ativo 139 / 146 40% 2 05.06.2027 -
Bertrand Traoré Sunderland Ativo 147 / 121 40% 1 05.06.2027 -
Gonzalo Fulham Ativo 139 / 157 40% 2 03.06.2027 -
Bojan Radulović Huddersfield Town Ativo 109 / 108 40% 2 03.06.2027 -
Cameron Archer Southampton Ativo 126 / 137 40% 1 02.06.2027 -
Tommy Conway Middlesbrough Ativo 132 / 117 40% 2 31.05.2027 -
Luis Vázquez Birmingham Ativo 128 / 131 40% 4 30.05.2027 -
Dávid Strelec Middlesbrough Ativo 129 / 146 40% 1 28.05.2027 -
Wilson Isidor Sunderland Ativo 127 / 132 40% 1 26.05.2027 -
Tom Cannon Sheffield United Ativo 141 / 136 40% 1 21.05.2027 -
Oli McBurnie Hull City Ativo 141 / 120 40% 1 21.05.2027 -
Elijah Adebayo Luton Town Ativo 124 / 124 40% 1 21.05.2027 -
Dango Ouattara Brentford Ativo 142 / 143 40% 1 09.05.2027 -
Evidence Makgopa Orlando Pirates Ativo 110 / 110 40% 1 07.05.2027 -
Sam Bell Bristol City Ativo 109 / 116 40% 1 03.05.2027 -
Ryan Gauld Vancouver Whitecaps Ativo 127 / 143 65% 1 22.02.2027 Aprovar
Mikkel Damsgaard Brentford Ativo 151 / 131 40% 1 13.02.2027 -
Enzo Le Fée Sunderland Ativo 141 / 128 40% 1 12.02.2027 -
Mandla Erasmus SuperSport United Ativo 113 / 113 40% 3 10.02.2027 -
Finn Azaz Southampton Ativo 120 / 145 40% 2 10.02.2027 -
Derry Murkin Derby County Ativo 119 / 135 40% 2 10.02.2027 Mais informações
Max Bird Birmingham Ativo 118 / 145 40% 2 10.02.2027 -
Will Fish Cardiff City Ativo 120 / 141 40% 1 10.02.2027 -
Kwadwo Baah Watford Ativo 116 / 137 40% 1 10.02.2027 -
Welington Southampton Ativo 125 / 123 40% 3 06.02.2027 -
Cian Ashford Cardiff City Ativo 119 / 119 40% 1 06.02.2027 -
Isaiah Jones Luton Town Ativo 131 / 114 40% 1 06.02.2027 -
Dennis Cirkin Queens Park Rangers Ativo 116 / 132 40% 1 06.02.2027 -
Tshepang Moremi Orlando Pirates Ativo 104 / 131 40% 4 04.02.2027 -
Florentino Luís Ipswich Town Ativo 140 / 138 40% 1 04.02.2027 -
Milan van Ewijk Mansfield Town Ativo 126 / 126 40% 2 03.02.2027 Mais informações
Jacques Ekomié Wrexham Ativo 142 / 147 40% 1 03.02.2027 Mais informações
Noah Sadiki Sunderland Ativo 141 / 153 40% 1 31.01.2027 -
Harry Clarke Preston Ativo 117 / 118 40% 1 30.01.2027 -
Callum Doyle Wrexham Ativo 138 / 133 40% 1 29.01.2027 -
Ethan Pye Stockport County Ativo 108 / 124 40% 1 29.01.2027 -
Lewis Gibson Preston Ativo 130 / 125 40% 1 29.01.2027 -
Georginio Rutter Brighton Ativo 154 / 136 40% 1 28.01.2027 -
Ryan Sessegnon Fulham Ativo 133 / 143 40% 1 28.01.2027 -
Callum Hudson-Odoi Nottingham Forest Ativo 145 / 142 40% 2 25.01.2027 -
Stanley Mills Oxford United Ativo 129 / 133 40% 1 25.01.2027 -
Amine Adli Bournemouth Ativo 133 / 154 40% 1 25.01.2027 -
Kevin Fulham Ativo 141 / 165 40% 1 24.01.2027 -
Ronald Swansea City Ativo 139 / 131 40% 1 24.01.2027 -
Williams Manyama SuperSport United Ativo 128 / 106 40% 4 23.01.2027 -
Kwame Poku Queens Park Rangers Ativo 120 / 114 40% 1 22.01.2027 -
Petar Stanić Ludogorets Ativo 125 / 117 40% 2 21.01.2027 -
Lewis Ferguson Bologna Ativo 131 / 139 40% 2 20.01.2027 -
Álex Centelles Levski Ativo 136 / 139 40% 1 20.01.2027 -
Bongani Modiba Black Aces Ativo 119 / 105 40% 5 19.01.2027 -
Lucas Da Cunha Como Ativo 150 / 159 40% 2 18.01.2027 -
Reda Khadra Qarabag Ativo 133 / 137 40% 4 14.01.2027 -
Filippo Ranocchia Palermo Ativo 118 / 141 40% 1 12.01.2027 -
Marcelo Allende Mamelodi Sundowns Ativo 137 / 145 40% 4 09.01.2027 -
Giacomo Raspadori Atalanta Ativo 135 / 128 40% 3 09.01.2027 -
Romano Schmid Frosinone Ativo 138 / 147 40% 1 04.01.2027 -
Marquinhos Spartak Moscow Ativo 121 / 145 40% 3 03.01.2027 -
Femi Seriki Sheffield United Ativo 120 / 119 40% 4 25.12.2026 -
Ruben van Bommel Ferencvaros Ativo 145 / 135 40% 3 24.12.2026 -
Max Conway Bolton Wanderers Ativo 117 / 131 40% 3 21.12.2026 -
Aidomo Emakhu Oxford United Ativo 118 / 117 40% 2 11.12.2026 -
Suleiman Camara Slovan Bratislava Ativo 130 / 118 40% 2 08.12.2026 -
Hélio Varela Maccabi Tel Aviv Ativo 117 / 119 40% 1 05.12.2026 -
Tornike Morchiladze HNK Rijeka Ativo 127 / 116 40% 1 04.12.2026 -
Christian Krasnodar Ativo 149 / 122 40% 1 29.11.2026 -
Maxim De Cuyper Brighton Ativo 130 / 123 40% 1 12.11.2026 -
Antonio Galeano Remo Stars Ativo 117 / 107 40% 1 12.10.2026 -
Tomás Chancalay Minnesota United FC Ativo 123 / 117 40% 1 09.10.2026 -
Oswin Appollis Orlando Pirates Ativo 107 / 135 40% 1 09.10.2026 -
Caolan Boyd-Munce Wycombe Wanderers Ativo 107 / 118 40% 1 07.10.2026 -
Martín Ojeda Orlando City Ativo 140 / 132 40% 1 07.10.2026 -
Facundo Mura Inter Miami CF Ativo 127 / 114 40% 3 19.09.2026 -
Michael Svoboda Brighton Ativo 129 / 127 40% 2 19.09.2026 -
Andrés Herrera Columbus Crew Ativo 128 / 126 40% 2 19.09.2026 -
Rui Modesto Vancouver Whitecaps Ativo 116 / 132 40% 1 07.09.2026 -
Ethan Laird Birmingham Ativo 117 / 129 40% 1 07.09.2026 -